sensor_id;sensor_type;location;lat;lon;timestamp;pressure;altitude;pressure_sealevel;temperature;humidity
59859;BME280;45734;53.648;9.566;2022-12-07T00:01:39;101128.00;;;1.88;100.00
59859;BME280;45734;53.648;9.566;2022-12-07T00:06:44;101115.34;;;1.80;100.00
59859;BME280;45734;53.648;9.566;2022-12-07T00:11:49;101111.22;;;1.76;100.00
59859;BME280;45734;53.648;9.566;2022-12-07T00:16:51;101110.28;;;1.77;100.00
59859;BME280;45734;53.648;9.566;2022-12-07T00:21:51;101105.50;;;1.84;100.00
59859;BME280;45734;53.648;9.566;2022-12-07T00:26:51;101113.28;;;1.85;100.00
59859;BME280;45734;53.648;9.566;2022-12-07T00:31:52;101119.00;;;1.77;100.00
59859;BME280;45734;53.648;9.566;2022-12-07T00:36:52;101116.28;;;1.79;100.00
59859;BME280;45734;53.648;9.566;2022-12-07T00:41:52;101102.97;;;1.82;100.00
59859;BME280;45734;53.648;9.566;2022-12-07T00:46:53;101107.00;;;1.88;100.00
59859;BME280;45734;53.648;9.566;2022-12-07T00:51:53;101091.03;;;1.91;100.00
59859;BME280;45734;53.648;9.566;2022-12-07T00:56:53;101093.38;;;1.95;100.00
59859;BME280;45734;53.648;9.566;2022-12-07T01:01:54;101093.78;;;1.89;100.00
59859;BME280;45734;53.648;9.566;2022-12-07T01:06:54;101084.31;;;1.87;100.00
59859;BME280;45734;53.648;9.566;2022-12-07T01:11:55;101083.34;;;1.88;100.00
59859;BME280;45734;53.648;9.566;2022-12-07T01:16:55;101070.66;;;1.94;100.00
59859;BME280;45734;53.648;9.566;2022-12-07T01:21:55;101077.69;;;1.94;100.00
59859;BME280;45734;53.648;9.566;2022-12-07T01:26:56;101075.66;;;1.85;100.00
59859;BME280;45734;53.648;9.566;2022-12-07T01:31:56;101080.56;;;1.76;100.00
59859;BME280;45734;53.648;9.566;2022-12-07T01:36:56;101079.47;;;1.66;100.00
59859;BME280;45734;53.648;9.566;2022-12-07T01:41:57;101067.63;;;1.59;100.00
59859;BME280;45734;53.648;9.566;2022-12-07T01:47:00;101076.66;;;1.55;100.00
59859;BME280;45734;53.648;9.566;2022-12-07T01:57:08;101082.66;;;1.43;100.00
59859;BME280;45734;53.648;9.566;2022-12-07T02:02:18;101077.03;;;1.34;100.00
59859;BME280;45734;53.648;9.566;2022-12-07T02:07:20;101074.03;;;1.26;100.00
59859;BME280;45734;53.648;9.566;2022-12-07T02:12:23;101081.97;;;1.25;100.00
59859;BME280;45734;53.648;9.566;2022-12-07T02:18:00;101080.28;;;1.24;100.00
59859;BME280;45734;53.648;9.566;2022-12-07T02:23:18;101084.91;;;1.20;100.00
59859;BME280;45734;53.648;9.566;2022-12-07T02:34:12;101080.28;;;1.09;100.00
59859;BME280;45734;53.648;9.566;2022-12-07T02:39:20;101083.00;;;1.08;100.00
59859;BME280;45734;53.648;9.566;2022-12-07T02:44:27;101083.28;;;1.03;100.00
59859;BME280;45734;53.648;9.566;2022-12-07T02:49:29;101085.97;;;1.02;100.00
59859;BME280;45734;53.648;9.566;2022-12-07T02:54:30;101078.28;;;0.99;100.00
59859;BME280;45734;53.648;9.566;2022-12-07T03:05:25;101078.84;;;0.89;100.00
59859;BME280;45734;53.648;9.566;2022-12-07T03:11:02;101082.59;;;0.85;100.00
59859;BME280;45734;53.648;9.566;2022-12-07T03:16:26;101082.59;;;0.85;100.00
59859;BME280;45734;53.648;9.566;2022-12-07T03:21:33;101073.97;;;0.83;100.00
59859;BME280;45734;53.648;9.566;2022-12-07T03:26:38;101084.75;;;0.79;100.00
59859;BME280;45734;53.648;9.566;2022-12-07T03:31:43;101075.28;;;0.76;100.00
59859;BME280;45734;53.648;9.566;2022-12-07T03:36:54;101073.75;;;0.72;100.00
59859;BME280;45734;53.648;9.566;2022-12-07T03:41:58;101076.06;;;0.62;100.00
59859;BME280;45734;53.648;9.566;2022-12-07T03:47:04;101075.59;;;0.56;100.00
59859;BME280;45734;53.648;9.566;2022-12-07T03:52:18;101085.50;;;0.51;100.00
59859;BME280;45734;53.648;9.566;2022-12-07T03:57:24;101083.13;;;0.46;100.00
59859;BME280;45734;53.648;9.566;2022-12-07T04:02:27;101079.97;;;0.55;100.00
59859;BME280;45734;53.648;9.566;2022-12-07T04:07:27;101079.88;;;0.57;100.00
59859;BME280;45734;53.648;9.566;2022-12-07T04:12:28;101079.63;;;0.61;100.00
59859;BME280;45734;53.648;9.566;2022-12-07T04:17:28;101079.47;;;0.64;100.00
59859;BME280;45734;53.648;9.566;2022-12-07T04:22:28;101078.50;;;0.65;100.00
59859;BME280;45734;53.648;9.566;2022-12-07T04:27:29;101083.75;;;0.65;100.00
59859;BME280;45734;53.648;9.566;2022-12-07T04:32:29;101079.34;;;0.66;100.00
59859;BME280;45734;53.648;9.566;2022-12-07T04:37:30;101076.06;;;0.62;100.00
59859;BME280;45734;53.648;9.566;2022-12-07T04:42:30;101082.44;;;0.58;100.00
59859;BME280;45734;53.648;9.566;2022-12-07T04:47:30;101075.59;;;0.56;100.00
59859;BME280;45734;53.648;9.566;2022-12-07T04:52:31;101070.34;;;0.56;100.00
59859;BME280;45734;53.648;9.566;2022-12-07T04:57:31;101069.41;;;0.57;100.00
59859;BME280;45734;53.648;9.566;2022-12-07T05:02:31;101067.81;;;0.54;100.00
59859;BME280;45734;53.648;9.566;2022-12-07T05:07:32;101074.91;;;0.52;100.00
59859;BME280;45734;53.648;9.566;2022-12-07T05:12:32;101077.63;;;0.51;100.00
59859;BME280;45734;53.648;9.566;2022-12-07T05:17:32;101076.84;;;0.49;100.00
59859;BME280;45734;53.648;9.566;2022-12-07T05:22:34;101066.31;;;0.50;100.00
59859;BME280;45734;53.648;9.566;2022-12-07T05:27:34;101060.22;;;0.50;100.00
59859;BME280;45734;53.648;9.566;2022-12-07T05:32:34;101064.34;;;0.54;100.00
59859;BME280;45734;53.648;9.566;2022-12-07T05:37:35;101059.88;;;0.56;100.00
59859;BME280;45734;53.648;9.566;2022-12-07T05:42:35;101069.31;;;0.58;100.00
59859;BME280;45734;53.648;9.566;2022-12-07T05:47:37;101057.78;;;0.61;100.00
59859;BME280;45734;53.648;9.566;2022-12-07T05:52:37;101057.47;;;0.67;100.00
59859;BME280;45734;53.648;9.566;2022-12-07T05:57:38;101056.91;;;0.76;100.00
59859;BME280;45734;53.648;9.566;2022-12-07T06:02:38;101054.84;;;0.81;100.00
59859;BME280;45734;53.648;9.566;2022-12-07T06:07:38;101055.03;;;0.78;100.00
59859;BME280;45734;53.648;9.566;2022-12-07T06:12:39;101054.56;;;0.72;100.00
59859;BME280;45734;53.648;9.566;2022-12-07T06:17:42;101062.72;;;0.67;100.00
59859;BME280;45734;53.648;9.566;2022-12-07T06:22:42;101056.69;;;0.65;100.00
59859;BME280;45734;53.648;9.566;2022-12-07T06:27:43;101038.53;;;0.62;100.00
59859;BME280;45734;53.648;9.566;2022-12-07T06:32:43;101043.78;;;0.62;100.00
59859;BME280;45734;53.648;9.566;2022-12-07T06:37:43;101040.22;;;0.63;100.00
59859;BME280;45734;53.648;9.566;2022-12-07T06:42:44;101042.06;;;0.61;100.00
59859;BME280;45734;53.648;9.566;2022-12-07T06:47:44;101043.47;;;0.66;100.00
59859;BME280;45734;53.648;9.566;2022-12-07T06:52:44;101036.63;;;0.64;100.00
59859;BME280;45734;53.648;9.566;2022-12-07T06:57:45;101053.72;;;0.71;100.00
59859;BME280;45734;53.648;9.566;2022-12-07T07:02:45;101041.38;;;0.73;100.00
59859;BME280;45734;53.648;9.566;2022-12-07T07:07:45;101056.09;;;0.76;100.00
59859;BME280;45734;53.648;9.566;2022-12-07T07:12:46;101054.28;;;0.76;100.00
59859;BME280;45734;53.648;9.566;2022-12-07T07:17:46;101053.53;;;0.74;100.00
59859;BME280;45734;53.648;9.566;2022-12-07T07:22:47;101058.59;;;0.77;100.00
59859;BME280;45734;53.648;9.566;2022-12-07T07:27:48;101058.41;;;0.80;100.00
59859;BME280;45734;53.648;9.566;2022-12-07T07:32:48;101055.53;;;0.85;100.00
59859;BME280;45734;53.648;9.566;2022-12-07T07:37:49;101070.25;;;0.87;100.00
59859;BME280;45734;53.648;9.566;2022-12-07T07:42:50;101069.88;;;0.94;100.00
59859;BME280;45734;53.648;9.566;2022-12-07T07:47:51;101073.91;;;0.99;100.00
59859;BME280;45734;53.648;9.566;2022-12-07T07:52:52;101071.00;;;1.04;100.00
59859;BME280;45734;53.648;9.566;2022-12-07T07:57:53;101071.56;;;1.09;100.00
59859;BME280;45734;53.648;9.566;2022-12-07T08:02:54;101070.38;;;1.15;100.00
59859;BME280;45734;53.648;9.566;2022-12-07T08:07:54;101069.03;;;1.22;100.00
59859;BME280;45734;53.648;9.566;2022-12-07T08:12:54;101072.25;;;1.27;100.00
59859;BME280;45734;53.648;9.566;2022-12-07T08:18:14;101073.66;;;1.32;100.00
59859;BME280;45734;53.648;9.566;2022-12-07T08:23:15;101067.94;;;1.40;100.00
59859;BME280;45734;53.648;9.566;2022-12-07T08:28:15;101069.34;;;1.46;100.00
59859;BME280;45734;53.648;9.566;2022-12-07T08:33:15;101074.84;;;1.55;100.00
59859;BME280;45734;53.648;9.566;2022-12-07T08:38:16;101073.63;;;1.61;100.00
59859;BME280;45734;53.648;9.566;2022-12-07T08:43:16;101068.94;;;1.66;100.00
59859;BME280;45734;53.648;9.566;2022-12-07T08:48:16;101077.16;;;1.74;100.00
59859;BME280;45734;53.648;9.566;2022-12-07T08:53:22;101090.66;;;1.83;100.00
59859;BME280;45734;53.648;9.566;2022-12-07T08:58:22;101076.50;;;1.85;100.00
59859;BME280;45734;53.648;9.566;2022-12-07T09:03:23;101086.53;;;1.93;100.00
59859;BME280;45734;53.648;9.566;2022-12-07T09:08:26;101089.88;;;1.95;100.00
59859;BME280;45734;53.648;9.566;2022-12-07T09:13:29;101095.91;;;1.97;100.00
59859;BME280;45734;53.648;9.566;2022-12-07T09:18:30;101094.97;;;1.98;100.00
59859;BME280;45734;53.648;9.566;2022-12-07T09:23:30;101095.69;;;2.00;100.00
59859;BME280;45734;53.648;9.566;2022-12-07T09:28:31;101086.78;;;2.02;100.00
59859;BME280;45734;53.648;9.566;2022-12-07T09:33:31;101088.94;;;2.10;100.00
59859;BME280;45734;53.648;9.566;2022-12-07T09:38:32;101095.47;;;2.17;100.00
59859;BME280;45734;53.648;9.566;2022-12-07T09:43:35;101090.56;;;2.25;100.00
59859;BME280;45734;53.648;9.566;2022-12-07T09:48:37;101096.19;;;2.34;100.00
59859;BME280;45734;53.648;9.566;2022-12-07T09:53:39;101093.91;;;2.42;100.00
59859;BME280;45734;53.648;9.566;2022-12-07T09:58:39;101093.78;;;2.43;100.00
59859;BME280;45734;53.648;9.566;2022-12-07T10:03:47;101108.31;;;2.49;100.00
59859;BME280;45734;53.648;9.566;2022-12-07T10:08:49;101096.00;;;2.49;100.00
59859;BME280;45734;53.648;9.566;2022-12-07T10:13:52;101086.03;;;2.55;100.00
59859;BME280;45734;53.648;9.566;2022-12-07T10:18:54;101073.31;;;2.61;100.00
59859;BME280;45734;53.648;9.566;2022-12-07T10:24:24;101081.97;;;2.76;100.00
59859;BME280;45734;53.648;9.566;2022-12-07T10:29:37;101087.47;;;2.86;100.00
59859;BME280;45734;53.648;9.566;2022-12-07T10:34:37;101082.75;;;2.91;100.00
59859;BME280;45734;53.648;9.566;2022-12-07T10:39:42;101083.06;;;2.99;100.00
59859;BME280;45734;53.648;9.566;2022-12-07T10:44:43;101075.41;;;3.09;100.00
59859;BME280;45734;53.648;9.566;2022-12-07T11:00:23;101058.84;;;3.20;100.00
59859;BME280;45734;53.648;9.566;2022-12-07T11:05:27;101055.59;;;3.29;100.00
59859;BME280;45734;53.648;9.566;2022-12-07T11:11:04;101050.13;;;3.32;100.00
59859;BME280;45734;53.648;9.566;2022-12-07T11:16:34;101060.31;;;3.36;100.00
59859;BME280;45734;53.648;9.566;2022-12-07T11:27:13;101049.47;;;3.41;100.00
59859;BME280;45734;53.648;9.566;2022-12-07T11:32:34;101045.44;;;3.48;100.00
59859;BME280;45734;53.648;9.566;2022-12-07T11:37:39;101021.16;;;3.32;100.00
59859;BME280;45734;53.648;9.566;2022-12-07T11:42:51;101037.16;;;3.42;100.00
59859;BME280;45734;53.648;9.566;2022-12-07T11:47:59;101021.56;;;3.38;100.00
59859;BME280;45734;53.648;9.566;2022-12-07T12:03:36;101027.41;;;3.55;100.00
59859;BME280;45734;53.648;9.566;2022-12-07T12:08:46;101028.69;;;3.62;100.00
59859;BME280;45734;53.648;9.566;2022-12-07T12:14:01;101011.34;;;3.47;100.00
59859;BME280;45734;53.648;9.566;2022-12-07T12:19:10;101037.94;;;3.68;100.00
59859;BME280;45734;53.648;9.566;2022-12-07T12:24:22;101029.59;;;3.74;100.00
59859;BME280;45734;53.648;9.566;2022-12-07T12:29:32;101028.78;;;3.97;100.00
59859;BME280;45734;53.648;9.566;2022-12-07T12:50:32;101000.38;;;3.77;100.00
59859;BME280;45734;53.648;9.566;2022-12-07T13:00:42;100997.38;;;3.57;100.00
59859;BME280;45734;53.648;9.566;2022-12-07T13:05:42;101022.66;;;3.60;100.00
59859;BME280;45734;53.648;9.566;2022-12-07T13:10:46;101003.22;;;3.50;100.00
59859;BME280;45734;53.648;9.566;2022-12-07T13:16:36;101007.66;;;3.49;100.00
59859;BME280;45734;53.648;9.566;2022-12-07T13:26:42;101018.38;;;3.59;100.00
59859;BME280;45734;53.648;9.566;2022-12-07T13:31:46;101012.34;;;3.57;100.00
59859;BME280;45734;53.648;9.566;2022-12-07T13:36:47;101019.41;;;3.56;100.00
59859;BME280;45734;53.648;9.566;2022-12-07T13:42:14;101013.13;;;3.46;100.00
59859;BME280;45734;53.648;9.566;2022-12-07T13:52:25;101014.50;;;3.39;100.00
59859;BME280;45734;53.648;9.566;2022-12-07T13:57:28;101002.22;;;3.27;100.00
59859;BME280;45734;53.648;9.566;2022-12-07T14:02:33;100999.47;;;3.15;100.00
59859;BME280;45734;53.648;9.566;2022-12-07T14:07:34;100999.28;;;3.06;100.00
59859;BME280;45734;53.648;9.566;2022-12-07T14:12:36;100992.97;;;2.95;100.00
59859;BME280;45734;53.648;9.566;2022-12-07T14:17:49;101009.47;;;2.85;100.00
59859;BME280;45734;53.648;9.566;2022-12-07T14:22:54;101007.69;;;2.72;100.00
59859;BME280;45734;53.648;9.566;2022-12-07T14:27:59;101020.50;;;2.64;100.00
59859;BME280;45734;53.648;9.566;2022-12-07T14:33:04;101016.81;;;2.54;100.00
59859;BME280;45734;53.648;9.566;2022-12-07T14:38:05;101006.69;;;2.35;100.00
59859;BME280;45734;53.648;9.566;2022-12-07T14:43:10;101015.72;;;2.31;100.00
59859;BME280;45734;53.648;9.566;2022-12-07T14:48:13;100993.59;;;2.08;100.00
59859;BME280;45734;53.648;9.566;2022-12-07T14:53:16;100997.56;;;2.01;100.00
59859;BME280;45734;53.648;9.566;2022-12-07T14:58:17;100982.56;;;1.89;100.00
59859;BME280;45734;53.648;9.566;2022-12-07T15:03:18;100986.44;;;1.83;100.00
59859;BME280;45734;53.648;9.566;2022-12-07T15:08:18;101001.47;;;1.81;100.00
59859;BME280;45734;53.648;9.566;2022-12-07T15:13:19;100985.75;;;1.67;100.00
59859;BME280;45734;53.648;9.566;2022-12-07T15:18:38;101012.66;;;1.70;100.00
59859;BME280;45734;53.648;9.566;2022-12-07T15:23:39;101005.38;;;1.61;100.00
59859;BME280;45734;53.648;9.566;2022-12-07T15:28:39;100996.38;;;1.51;100.00
59859;BME280;45734;53.648;9.566;2022-12-07T15:33:43;100987.78;;;1.34;100.00
59859;BME280;45734;53.648;9.566;2022-12-07T15:38:43;101000.72;;;1.38;100.00
59859;BME280;45734;53.648;9.566;2022-12-07T15:43:44;100982.38;;;1.23;100.00
59859;BME280;45734;53.648;9.566;2022-12-07T15:49:06;100991.19;;;1.22;100.00
59859;BME280;45734;53.648;9.566;2022-12-07T15:54:18;100994.84;;;1.05;100.00
59859;BME280;45734;53.648;9.566;2022-12-07T15:59:19;100984.25;;;0.93;100.00
59859;BME280;45734;53.648;9.566;2022-12-07T16:04:20;100990.88;;;0.84;100.00
59859;BME280;45734;53.648;9.566;2022-12-07T16:09:20;100981.25;;;0.70;100.00
59859;BME280;45734;53.648;9.566;2022-12-07T16:14:21;100989.38;;;0.65;100.00
59859;BME280;45734;53.648;9.566;2022-12-07T16:19:22;100980.28;;;0.57;100.00
59859;BME280;45734;53.648;9.566;2022-12-07T16:24:22;100981.84;;;0.45;100.00
59859;BME280;45734;53.648;9.566;2022-12-07T16:29:23;100975.44;;;0.35;100.00
59859;BME280;45734;53.648;9.566;2022-12-07T16:34:23;100976.75;;;0.28;100.00
59859;BME280;45734;53.648;9.566;2022-12-07T16:39:23;100981.41;;;0.22;100.00
59859;BME280;45734;53.648;9.566;2022-12-07T16:44:24;100977.88;;;0.24;100.00
59859;BME280;45734;53.648;9.566;2022-12-07T16:49:25;100986.00;;;0.19;100.00
59859;BME280;45734;53.648;9.566;2022-12-07T16:54:25;100976.81;;;0.12;100.00
59859;BME280;45734;53.648;9.566;2022-12-07T16:59:25;100975.75;;;0.00;100.00
59859;BME280;45734;53.648;9.566;2022-12-07T17:04:25;100977.34;;;-0.13;100.00
59859;BME280;45734;53.648;9.566;2022-12-07T17:09:26;100964.88;;;-0.24;100.00
59859;BME280;45734;53.648;9.566;2022-12-07T17:14:26;100970.19;;;-0.26;100.00
59859;BME280;45734;53.648;9.566;2022-12-07T17:19:45;100959.31;;;-0.34;100.00
59859;BME280;45734;53.648;9.566;2022-12-07T17:24:45;100967.34;;;-0.37;100.00
59859;BME280;45734;53.648;9.566;2022-12-07T17:29:46;100954.84;;;-0.48;100.00
59859;BME280;45734;53.648;9.566;2022-12-07T17:34:46;100956.63;;;-0.48;100.00
59859;BME280;45734;53.648;9.566;2022-12-07T17:39:46;100942.28;;;-0.57;100.00
59859;BME280;45734;53.648;9.566;2022-12-07T17:44:47;100939.22;;;-0.65;100.00
59859;BME280;45734;53.648;9.566;2022-12-07T17:49:47;100948.25;;;-0.71;100.00
59859;BME280;45734;53.648;9.566;2022-12-07T17:54:48;100938.06;;;-0.75;100.00
59859;BME280;45734;53.648;9.566;2022-12-07T17:59:48;100930.44;;;-0.80;100.00
59859;BME280;45734;53.648;9.566;2022-12-07T18:04:50;100928.00;;;-0.83;100.00
59859;BME280;45734;53.648;9.566;2022-12-07T18:09:50;100924.72;;;-0.86;100.00
59859;BME280;45734;53.648;9.566;2022-12-07T18:14:50;100922.44;;;-0.93;100.00
59859;BME280;45734;53.648;9.566;2022-12-07T18:19:53;100910.19;;;-0.92;100.00
59859;BME280;45734;53.648;9.566;2022-12-07T18:24:53;100912.88;;;-0.94;100.00
59859;BME280;45734;53.648;9.566;2022-12-07T18:29:54;100914.25;;;-0.86;100.00
59859;BME280;45734;53.648;9.566;2022-12-07T18:34:54;100911.31;;;-0.80;100.00
59859;BME280;45734;53.648;9.566;2022-12-07T18:39:55;100911.72;;;-0.72;100.00
59859;BME280;45734;53.648;9.566;2022-12-07T18:44:56;100900.75;;;-0.63;100.00
59859;BME280;45734;53.648;9.566;2022-12-07T18:49:56;100893.84;;;-0.64;100.00
59859;BME280;45734;53.648;9.566;2022-12-07T18:54:56;100879.81;;;-0.63;100.00
59859;BME280;45734;53.648;9.566;2022-12-07T18:59:56;100869.03;;;-0.73;100.00
59859;BME280;45734;53.648;9.566;2022-12-07T19:04:57;100897.53;;;-0.68;100.00
59859;BME280;45734;53.648;9.566;2022-12-07T19:09:57;100890.88;;;-0.74;100.00
59859;BME280;45734;53.648;9.566;2022-12-07T19:14:57;100885.16;;;-0.80;100.00
59859;BME280;45734;53.648;9.566;2022-12-07T19:19:58;100885.22;;;-0.82;100.00
59859;BME280;45734;53.648;9.566;2022-12-07T19:24:58;100865.66;;;-0.91;100.00
59859;BME280;45734;53.648;9.566;2022-12-07T19:29:58;100867.00;;;-0.83;100.00
59859;BME280;45734;53.648;9.566;2022-12-07T19:34:59;100871.31;;;-0.82;100.00
59859;BME280;45734;53.648;9.566;2022-12-07T19:39:59;100873.75;;;-0.79;100.00
59859;BME280;45734;53.648;9.566;2022-12-07T19:45:00;100865.47;;;-0.72;100.00
59859;BME280;45734;53.648;9.566;2022-12-07T19:50:00;100856.09;;;-0.60;100.00
59859;BME280;45734;53.648;9.566;2022-12-07T19:55:01;100854.63;;;-0.50;100.00
59859;BME280;45734;53.648;9.566;2022-12-07T20:00:01;100840.34;;;-0.44;100.00
59859;BME280;45734;53.648;9.566;2022-12-07T20:05:01;100837.31;;;-0.36;100.00
59859;BME280;45734;53.648;9.566;2022-12-07T20:10:02;100824.41;;;-0.39;100.00
59859;BME280;45734;53.648;9.566;2022-12-07T20:15:02;100822.44;;;-0.36;100.00
59859;BME280;45734;53.648;9.566;2022-12-07T20:20:03;100821.53;;;-0.35;100.00
59859;BME280;45734;53.648;9.566;2022-12-07T20:25:04;100809.19;;;-0.33;100.00
59859;BME280;45734;53.648;9.566;2022-12-07T20:30:05;100806.47;;;-0.31;100.00
59859;BME280;45734;53.648;9.566;2022-12-07T20:35:06;100802.94;;;-0.30;100.00
59859;BME280;45734;53.648;9.566;2022-12-07T20:40:06;100799.28;;;-0.28;100.00
59859;BME280;45734;53.648;9.566;2022-12-07T20:45:07;100791.25;;;-0.25;100.00
59859;BME280;45734;53.648;9.566;2022-12-07T20:50:08;100801.53;;;-0.21;100.00
59859;BME280;45734;53.648;9.566;2022-12-07T20:55:08;100782.63;;;-0.27;100.00
59859;BME280;45734;53.648;9.566;2022-12-07T21:00:09;100781.19;;;-0.16;100.00
59859;BME280;45734;53.648;9.566;2022-12-07T21:05:09;100781.00;;;-0.13;100.00
59859;BME280;45734;53.648;9.566;2022-12-07T21:10:10;100792.75;;;-0.06;100.00
59859;BME280;45734;53.648;9.566;2022-12-07T21:15:10;100787.34;;;-0.03;100.00
59859;BME280;45734;53.648;9.566;2022-12-07T21:20:11;100780.25;;;-0.01;100.00
59859;BME280;45734;53.648;9.566;2022-12-07T21:25:11;100767.72;;;0.04;100.00
59859;BME280;45734;53.648;9.566;2022-12-07T21:30:12;100754.63;;;0.04;100.00
59859;BME280;45734;53.648;9.566;2022-12-07T21:35:12;100750.59;;;0.13;100.00
59859;BME280;45734;53.648;9.566;2022-12-07T21:40:12;100731.63;;;0.09;100.00
59859;BME280;45734;53.648;9.566;2022-12-07T21:45:13;100723.59;;;0.12;100.00
59859;BME280;45734;53.648;9.566;2022-12-07T21:50:13;100736.94;;;0.22;100.00
59859;BME280;45734;53.648;9.566;2022-12-07T21:55:14;100728.31;;;0.20;100.00
59859;BME280;45734;53.648;9.566;2022-12-07T22:00:15;100719.56;;;0.21;100.00
59859;BME280;45734;53.648;9.566;2022-12-07T22:05:15;100720.56;;;0.18;100.00
59859;BME280;45734;53.648;9.566;2022-12-07T22:10:16;100715.72;;;0.12;100.00
59859;BME280;45734;53.648;9.566;2022-12-07T22:15:27;100714.59;;;0.02;100.00
59859;BME280;45734;53.648;9.566;2022-12-07T22:20:27;100691.97;;;-0.13;100.00
59859;BME280;45734;53.648;9.566;2022-12-07T22:25:28;100679.34;;;-0.21;100.00
59859;BME280;45734;53.648;9.566;2022-12-07T22:30:28;100681.56;;;-0.15;100.00
59859;BME280;45734;53.648;9.566;2022-12-07T22:35:28;100674.03;;;-0.19;100.00
59859;BME280;45734;53.648;9.566;2022-12-07T22:40:28;100673.19;;;-0.20;100.00
59859;BME280;45734;53.648;9.566;2022-12-07T22:45:29;100653.47;;;-0.26;100.00
59859;BME280;45734;53.648;9.566;2022-12-07T22:50:29;100649.72;;;-0.21;100.00
59859;BME280;45734;53.648;9.566;2022-12-07T22:55:29;100636.81;;;-0.25;100.00
59859;BME280;45734;53.648;9.566;2022-12-07T23:00:30;100639.25;;;-0.21;100.00
59859;BME280;45734;53.648;9.566;2022-12-07T23:05:30;100627.75;;;-0.19;100.00
59859;BME280;45734;53.648;9.566;2022-12-07T23:10:30;100617.28;;;-0.19;100.00
59859;BME280;45734;53.648;9.566;2022-12-07T23:15:35;100605.13;;;-0.20;100.00
59859;BME280;45734;53.648;9.566;2022-12-07T23:20:36;100609.97;;;-0.14;100.00
59859;BME280;45734;53.648;9.566;2022-12-07T23:25:36;100579.97;;;-0.22;100.00
59859;BME280;45734;53.648;9.566;2022-12-07T23:30:36;100576.66;;;-0.12;100.00
59859;BME280;45734;53.648;9.566;2022-12-07T23:35:37;100575.63;;;-0.09;100.00
59859;BME280;45734;53.648;9.566;2022-12-07T23:40:37;100562.06;;;-0.02;100.00
59859;BME280;45734;53.648;9.566;2022-12-07T23:45:37;100540.56;;;-0.07;100.00
59859;BME280;45734;53.648;9.566;2022-12-07T23:50:38;100551.50;;;0.00;100.00
59859;BME280;45734;53.648;9.566;2022-12-07T23:55:44;100540.16;;;-0.01;100.00
